Time;durP1;ratioP1;P1;durP2;ratioP2;P2;SDS_P1;SDS_P2;PMS_P1;PMS_P2;Temp;Humidity;BMP_temperature;BMP_pressure;BME280_temperature;BME280_humidity;BME280_pressure;Samples;Min_cycle;Max_cycle;Signal;HPM_P1;HPM_P2
2022/10/20 00:00:42;;;;;;;8.10;3.70;;;21.40;71.60;;;;;;215041;1288;22491;-54
2022/10/20 00:06:07;;;;;;;8.00;4.30;;;21.40;71.80;;;;;;215043;1285;24307;-51
2022/10/20 00:11:13;;;;;;;6.80;3.60;;;21.40;72.00;;;;;;215067;1286;22449;-53
2022/10/20 00:16:18;;;;;;;4.90;3.00;;;21.40;72.50;;;;;;215073;1300;25784;-57
2022/10/20 00:21:24;;;;;;;6.40;3.10;;;21.40;72.00;;;;;;215031;1298;22712;-51
2022/10/20 00:26:30;;;;;;;6.30;3.60;;;21.40;72.10;;;;;;215194;1299;22614;-54
2022/10/20 00:31:34;;;;;;;5.90;3.10;;;21.40;72.50;;;;;;214992;1300;25322;-50
2022/10/20 00:36:38;;;;;;;8.70;3.50;;;21.40;72.20;;;;;;214942;1300;24198;-53
2022/10/20 00:41:42;;;;;;;6.80;3.90;;;21.50;72.90;;;;;;215103;1281;23934;-53
2022/10/20 00:46:46;;;;;;;5.70;3.40;;;21.50;72.70;;;;;;215014;1300;22458;-53
2022/10/20 00:51:51;;;;;;;5.90;3.20;;;21.50;72.50;;;;;;215178;1296;23835;-52
2022/10/20 00:56:56;;;;;;;5.40;3.60;;;21.50;72.40;;;;;;215059;1300;25349;-54
2022/10/20 01:02:33;;;;;;;8.90;3.60;;;21.40;72.20;;;;;;217566;1274;66391;31
2022/10/20 01:07:37;;;;;;;6.20;3.80;;;21.40;72.00;;;;;;213753;1288;23857;-52
2022/10/20 01:12:52;;;;;;;5.10;3.10;;;21.50;71.90;;;;;;213670;1290;22489;-52
2022/10/20 01:18:38;;;;;;;5.80;3.00;;;21.50;72.10;;;;;;213757;1295;22458;-48
2022/10/20 01:24:21;;;;;;;4.60;3.20;;;21.40;71.70;;;;;;213777;1294;22486;-50
2022/10/20 01:29:31;;;;;;;5.20;3.00;;;21.40;71.60;;;;;;213783;1301;25691;-52
2022/10/20 01:35:03;;;;;;;5.90;2.80;;;21.30;71.70;;;;;;213707;1288;22499;-53
2022/10/20 01:40:15;;;;;;;4.60;2.90;;;21.30;72.00;;;;;;213707;1286;25324;-51
2022/10/20 01:45:23;;;;;;;5.30;3.40;;;21.30;71.50;;;;;;213729;1286;22588;-50
2022/10/20 01:50:28;;;;;;;5.10;2.80;;;21.30;71.50;;;;;;213778;1294;24828;-47
2022/10/20 01:55:33;;;;;;;5.00;3.40;;;21.30;71.50;;;;;;213708;1284;25661;-52
2022/10/20 02:00:42;;;;;;;4.90;2.80;;;21.20;71.40;;;;;;213681;1281;22513;-51
2022/10/20 02:05:47;;;;;;;5.80;3.30;;;21.20;71.30;;;;;;213514;1286;25576;-50
2022/10/20 02:10:56;;;;;;;5.70;3.20;;;21.20;71.30;;;;;;213541;1288;22471;-48
2022/10/20 02:16:13;;;;;;;4.80;2.50;;;21.20;71.40;;;;;;213634;1288;25193;-51
2022/10/20 02:21:31;;;;;;;5.80;2.90;;;21.20;71.40;;;;;;213523;1285;22565;-51
2022/10/20 02:26:38;;;;;;;4.60;2.80;;;21.20;71.20;;;;;;213564;1293;24278;-51
2022/10/20 02:31:43;;;;;;;5.40;3.20;;;21.10;71.30;;;;;;213574;1291;24245;-53
2022/10/20 02:36:47;;;;;;;5.40;3.10;;;21.10;71.20;;;;;;213630;1288;22580;-53
2022/10/20 02:41:50;;;;;;;6.10;3.40;;;21.10;71.20;;;;;;213618;1286;22595;-52
2022/10/20 02:46:54;;;;;;;7.00;3.30;;;21.10;71.50;;;;;;213708;1288;23865;-50
2022/10/20 02:51:57;;;;;;;6.20;2.90;;;21.10;71.00;;;;;;213593;1288;24245;-51
2022/10/20 02:57:01;;;;;;;5.50;2.80;;;21.10;71.00;;;;;;213475;1284;22608;-52
2022/10/20 03:02:04;;;;;;;4.60;2.70;;;21.00;71.30;;;;;;213452;1288;22599;-51
2022/10/20 03:07:09;;;;;;;5.10;2.70;;;21.00;70.80;;;;;;213765;1310;25289;-51
2022/10/20 03:12:12;;;;;;;4.70;3.00;;;21.00;71.10;;;;;;213678;1284;26536;-52
2022/10/20 03:17:16;;;;;;;4.90;3.00;;;21.00;70.80;;;;;;213575;1281;25548;-52
2022/10/20 03:22:19;;;;;;;5.80;3.30;;;21.00;70.70;;;;;;213472;1281;22737;-49
2022/10/20 03:27:23;;;;;;;3.90;2.60;;;21.00;70.70;;;;;;213546;1287;22488;-49
2022/10/20 03:32:26;;;;;;;5.80;3.40;;;21.00;71.00;;;;;;213436;1286;22586;-51
2022/10/20 03:37:30;;;;;;;4.30;2.80;;;20.90;70.60;;;;;;213607;1288;22496;-51
2022/10/20 03:42:33;;;;;;;5.60;3.00;;;20.90;70.90;;;;;;213579;1288;24204;-50
2022/10/20 03:47:37;;;;;;;13.20;3.30;;;20.90;70.60;;;;;;213614;1288;22523;-53
2022/10/20 03:52:40;;;;;;;6.00;3.00;;;20.90;70.80;;;;;;213439;1280;23079;-51
2022/10/20 03:57:46;;;;;;;5.80;3.40;;;20.80;70.70;;;;;;213478;1286;24101;-54
2022/10/20 04:02:57;;;;;;;5.90;3.00;;;20.90;70.50;;;;;;213427;1296;22529;-53
2022/10/20 04:08:00;;;;;;;5.40;2.90;;;20.80;70.80;;;;;;213521;1288;22607;-57
2022/10/20 04:13:04;;;;;;;4.00;2.50;;;20.80;70.40;;;;;;213323;1293;22536;-51
2022/10/20 04:18:07;;;;;;;5.00;3.00;;;20.80;70.80;;;;;;213510;1294;22591;-51
2022/10/20 04:23:11;;;;;;;3.90;2.50;;;20.80;70.50;;;;;;213508;1280;22498;-53
2022/10/20 04:28:16;;;;;;;6.00;3.00;;;20.70;70.50;;;;;;213628;1286;25524;-51
2022/10/20 04:33:19;;;;;;;4.60;2.80;;;20.70;70.50;;;;;;213646;1294;25542;-51
2022/10/20 04:38:23;;;;;;;6.30;3.20;;;20.70;70.50;;;;;;213560;1285;22479;-51
2022/10/20 04:43:26;;;;;;;8.30;3.40;;;20.70;70.60;;;;;;213555;1281;22939;-52
2022/10/20 04:48:30;;;;;;;4.20;2.70;;;20.60;70.60;;;;;;213666;1287;22601;-52
2022/10/20 04:53:34;;;;;;;7.10;3.40;;;20.70;71.00;;;;;;213449;1286;22485;-54
2022/10/20 04:58:38;;;;;;;5.50;3.30;;;20.60;70.60;;;;;;213747;1294;23846;-51
2022/10/20 05:03:41;;;;;;;7.40;3.10;;;20.70;70.40;;;;;;213608;1294;25307;-53
2022/10/20 05:08:47;;;;;;;11.30;3.90;;;21.10;69.70;;;;;;213403;1288;24278;-51
2022/10/20 05:13:51;;;;;;;7.00;2.90;;;21.40;68.60;;;;;;213636;1283;24457;-50
2022/10/20 05:18:56;;;;;;;5.50;3.20;;;21.60;68.10;;;;;;213557;1286;23933;-51
2022/10/20 05:24:02;;;;;;;6.80;3.40;;;21.90;67.20;;;;;;213615;1290;22573;-53
2022/10/20 05:29:08;;;;;;;9.80;3.30;;;22.00;66.70;;;;;;213470;1288;23525;-50
2022/10/20 05:34:12;;;;;;;9.40;3.50;;;22.10;66.30;;;;;;213420;1290;24322;-52
2022/10/20 05:39:15;;;;;;;7.70;3.40;;;22.20;66.00;;;;;;213307;1280;22483;-48
2022/10/20 05:44:19;;;;;;;6.20;3.00;;;22.30;65.90;;;;;;213535;1283;24258;-52
2022/10/20 05:49:23;;;;;;;5.70;3.10;;;22.30;65.80;;;;;;213592;1280;24248;-52
2022/10/20 05:54:26;;;;;;;9.50;3.90;;;22.30;66.00;;;;;;213601;1280;25381;-52
2022/10/20 05:59:33;;;;;;;6.80;3.50;;;22.40;65.90;;;;;;213654;1287;22589;-53
2022/10/20 06:04:37;;;;;;;14.00;4.30;;;22.40;66.50;;;;;;213528;1288;25326;-53
2022/10/20 06:09:41;;;;;;;8.10;3.70;;;22.30;67.20;;;;;;213359;1288;179555;-51
2022/10/20 06:14:44;;;;;;;7.30;3.10;;;22.30;67.40;;;;;;213609;1287;22657;-50
2022/10/20 06:19:48;;;;;;;8.80;3.40;;;22.20;67.40;;;;;;213508;1280;22745;-50
2022/10/20 06:24:52;;;;;;;6.80;3.30;;;22.10;68.50;;;;;;213455;1280;25539;-53
2022/10/20 06:29:56;;;;;;;6.70;3.00;;;22.00;68.50;;;;;;213471;1288;26530;-53
2022/10/20 06:34:59;;;;;;;19.30;3.00;;;22.00;68.70;;;;;;213687;1280;24288;-51
2022/10/20 06:40:03;;;;;;;14.90;3.80;;;21.80;69.20;;;;;;213516;1280;22492;-51
2022/10/20 06:45:07;;;;;;;16.50;3.50;;;21.80;69.70;;;;;;213592;1283;23924;-51
2022/10/20 06:50:19;;;;;;;11.80;3.90;;;21.70;69.60;;;;;;213649;1278;22510;-49
2022/10/20 06:55:35;;;;;;;7.50;3.50;;;21.70;69.60;;;;;;213322;1286;25349;-52
2022/10/20 07:00:38;;;;;;;7.30;3.40;;;21.70;69.50;;;;;;213422;1280;22475;-50
2022/10/20 07:05:42;;;;;;;9.90;3.60;;;21.70;69.40;;;;;;213453;1280;26601;-53
2022/10/20 07:10:45;;;;;;;11.30;3.30;;;21.60;69.30;;;;;;213380;1280;22955;-52
2022/10/20 07:15:52;;;;;;;9.40;3.40;;;21.60;70.10;;;;;;213073;1282;22513;-51
2022/10/20 07:20:58;;;;;;;7.70;3.00;;;21.60;69.50;;;;;;213410;1288;22958;-54
2022/10/20 07:26:10;;;;;;;8.10;3.10;;;21.60;68.80;;;;;;213649;1280;22510;-53
2022/10/20 07:31:24;;;;;;;8.30;3.10;;;21.70;70.00;;;;;;213514;1291;22646;-51
2022/10/20 07:36:31;;;;;;;7.70;3.60;;;21.70;70.40;;;;;;213444;1290;22492;-52
2022/10/20 07:41:42;;;;;;;8.60;3.20;;;21.70;70.00;;;;;;213666;1286;22510;-51
2022/10/20 07:46:48;;;;;;;5.70;2.90;;;21.70;69.40;;;;;;213646;1287;25843;-52
2022/10/20 07:51:52;;;;;;;7.00;3.20;;;21.60;69.60;;;;;;213545;1286;22922;-52
2022/10/20 07:56:57;;;;;;;8.50;3.20;;;21.60;69.60;;;;;;213596;1280;24257;-52
2022/10/20 08:02:00;;;;;;;6.80;2.90;;;21.70;69.20;;;;;;213767;1280;22628;-54
2022/10/20 08:07:04;;;;;;;7.50;2.80;;;21.70;69.40;;;;;;213750;1284;25389;-51
2022/10/20 08:12:08;;;;;;;9.40;3.10;;;21.60;69.30;;;;;;213516;1284;23960;-51
2022/10/20 08:17:11;;;;;;;8.00;3.40;;;21.70;69.00;;;;;;213533;1288;23604;-51
2022/10/20 08:22:17;;;;;;;7.10;3.30;;;21.70;69.10;;;;;;213589;1286;22516;-51
2022/10/20 08:27:22;;;;;;;8.40;3.30;;;21.70;68.90;;;;;;213555;1290;22532;-51
2022/10/20 08:32:28;;;;;;;6.30;3.10;;;21.70;69.30;;;;;;213475;1280;25300;-51
2022/10/20 08:37:32;;;;;;;5.80;2.80;;;21.80;68.90;;;;;;213552;1290;24487;-53
2022/10/20 08:42:43;;;;;;;7.90;3.40;;;21.80;68.70;;;;;;213657;1280;24325;-53
2022/10/20 08:47:51;;;;;;;9.70;3.70;;;21.80;68.60;;;;;;213622;1280;22515;-52
2022/10/20 08:52:58;;;;;;;8.90;3.40;;;21.80;68.50;;;;;;213657;1286;23051;-54
2022/10/20 08:58:22;;;;;;;8.50;3.30;;;21.90;68.30;;;;;;213703;1286;23949;-51
2022/10/20 09:03:31;;;;;;;12.70;4.40;;;21.80;68.10;;;;;;213544;1283;22609;-51
2022/10/20 09:08:38;;;;;;;8.40;3.10;;;21.90;66.70;;;;;;213427;1294;25303;-51
2022/10/20 09:13:42;;;;;;;8.60;3.10;;;21.90;66.90;;;;;;213418;1285;22951;-53
2022/10/20 09:18:52;;;;;;;11.00;3.60;;;22.00;67.50;;;;;;213460;1287;22507;-50
2022/10/20 09:24:00;;;;;;;6.00;3.80;;;22.00;67.30;;;;;;213538;1281;22473;-51
2022/10/20 09:29:09;;;;;;;7.20;3.40;;;22.00;67.10;;;;;;213535;1280;23865;-51
2022/10/20 09:34:31;;;;;;;7.20;3.10;;;22.10;66.60;;;;;;213395;1280;25330;-50
2022/10/20 09:39:47;;;;;;;9.60;3.10;;;22.20;66.60;;;;;;213502;1280;22582;-52
2022/10/20 09:45:21;;;;;;;11.50;4.00;;;22.20;66.30;;;;;;213449;1288;25576;-55
2022/10/20 09:50:39;;;;;;;8.50;3.10;;;22.30;66.30;;;;;;213403;1288;22583;-54
2022/10/20 09:55:48;;;;;;;7.20;3.10;;;22.40;66.60;;;;;;213453;1288;22561;-51
2022/10/20 10:01:02;;;;;;;8.50;3.10;;;22.40;66.20;;;;;;213488;1280;24221;-53
2022/10/20 10:06:37;;;;;;;10.90;3.30;;;22.40;65.90;;;;;;213515;1280;25552;-49
2022/10/20 10:11:41;;;;;;;8.30;3.30;;;22.50;66.00;;;;;;213480;1290;25409;-50
2022/10/20 10:16:45;;;;;;;10.30;3.80;;;22.40;66.10;;;;;;213650;1288;23200;-57
2022/10/20 10:21:57;;;;;;;7.50;3.50;;;22.50;65.80;;;;;;213623;1294;22631;-57
2022/10/20 10:27:17;;;;;;;12.50;2.70;;;22.60;66.20;;;;;;213500;1288;25672;-57
2022/10/20 10:32:26;;;;;;;6.00;3.00;;;22.60;66.20;;;;;;213544;1288;25263;-58
2022/10/20 10:37:30;;;;;;;9.40;3.60;;;22.60;65.10;;;;;;213560;1285;24246;-58
2022/10/20 10:43:03;;;;;;;7.80;3.20;;;22.60;63.70;;;;;;213509;1297;22486;-58
2022/10/20 10:48:44;;;;;;;8.30;3.30;;;22.60;64.90;;;;;;213629;1288;26518;-58
2022/10/20 10:53:48;;;;;;;8.00;2.70;;;22.60;64.40;;;;;;213747;1280;25252;-58
2022/10/20 10:59:05;;;;;;;5.90;2.90;;;22.60;64.50;;;;;;213636;1287;22506;-57
2022/10/20 11:04:35;;;;;;;9.70;3.10;;;22.70;65.20;;;;;;213602;1280;23819;-54
2022/10/20 11:10:13;;;;;;;8.00;2.90;;;22.70;64.90;;;;;;213682;1289;24275;-57
2022/10/20 11:15:38;;;;;;;4.60;2.70;;;22.70;65.50;;;;;;213060;1294;25679;-56
2022/10/20 11:20:56;;;;;;;10.70;3.00;;;22.70;65.60;;;;;;213378;1281;25536;-57
2022/10/20 11:26:02;;;;;;;8.90;3.30;;;22.70;65.20;;;;;;213420;1288;22498;-57
2022/10/20 11:31:06;;;;;;;5.10;2.40;;;22.70;65.50;;;;;;213394;1280;22577;-58
2022/10/20 11:36:17;;;;;;;8.20;2.50;;;22.80;65.20;;;;;;213427;1280;22491;-56
2022/10/20 11:41:42;;;;;;;5.10;2.40;;;22.80;65.30;;;;;;213440;1287;22558;-58
2022/10/20 11:46:55;;;;;;;14.10;3.70;;;22.90;65.20;;;;;;213507;1280;22963;-58
2022/10/20 11:52:16;;;;;;;10.90;3.50;;;22.90;64.60;;;;;;213416;1288;22732;-57
2022/10/20 11:57:36;;;;;;;6.10;2.70;;;22.90;62.90;;;;;;213558;1284;22545;-59
2022/10/20 12:02:46;;;;;;;5.10;2.30;;;22.90;62.90;;;;;;213241;1280;23090;-58
2022/10/20 12:08:18;;;;;;;9.00;3.40;;;23.00;63.10;;;;;;213404;1285;22491;-56
2022/10/20 12:13:51;;;;;;;4.80;2.70;;;23.10;63.20;;;;;;213182;1288;22478;-58
2022/10/20 12:19:14;;;;;;;6.40;2.70;;;23.10;62.40;;;;;;213297;1280;23073;-58
2022/10/20 12:24:29;;;;;;;6.60;2.30;;;23.10;63.20;;;;;;213542;1288;22569;-65
2022/10/20 12:29:35;;;;;;;5.50;2.60;;;23.10;62.50;;;;;;213072;1294;24041;-58
2022/10/20 12:34:40;;;;;;;6.00;2.80;;;23.10;62.60;;;;;;213271;1288;25470;-58
2022/10/20 12:39:45;;;;;;;6.40;2.10;;;23.20;62.70;;;;;;213277;1283;24245;-58
2022/10/20 12:44:50;;;;;;;4.50;2.20;;;23.10;62.30;;;;;;213370;1286;24827;-57
2022/10/20 12:50:26;;;;;;;8.10;2.80;;;23.10;62.40;;;;;;213471;1283;25551;-55
2022/10/20 12:55:36;;;;;;;13.90;4.20;;;23.10;62.50;;;;;;213206;1288;22527;-59
2022/10/20 13:00:50;;;;;;;16.50;4.50;;;23.10;61.90;;;;;;213336;1284;22624;-60
2022/10/20 13:05:57;;;;;;;5.50;2.40;;;23.20;61.80;;;;;;213208;1288;24258;-60
2022/10/20 13:11:32;;;;;;;14.50;3.30;;;23.20;62.00;;;;;;213272;1288;22545;-58
2022/10/20 13:16:36;;;;;;;9.80;3.30;;;23.20;61.40;;;;;;213268;1292;22483;-62
2022/10/20 13:21:40;;;;;;;9.40;2.90;;;23.20;59.80;;;;;;213252;1288;24246;-59
2022/10/20 13:26:56;;;;;;;6.10;2.90;;;23.30;59.50;;;;;;213425;1287;22484;-59
2022/10/20 13:32:03;;;;;;;;;;;23.30;59.80;;;;;;213284;1283;25288;-56
2022/10/20 13:37:25;;;;;;;4.90;2.40;;;23.40;59.50;;;;;;213351;1294;22540;-58
2022/10/20 13:42:51;;;;;;;15.00;3.70;;;23.40;59.50;;;;;;213243;1286;22992;-58
2022/10/20 13:48:19;;;;;;;4.60;2.50;;;23.40;59.40;;;;;;213501;1288;22489;-56
2022/10/20 13:53:27;;;;;;;13.00;3.70;;;23.40;59.50;;;;;;213326;1292;23867;-61
2022/10/20 13:58:31;;;;;;;15.90;3.80;;;23.30;59.30;;;;;;213516;1288;24363;-60
2022/10/20 14:03:45;;;;;;;8.30;3.00;;;23.30;59.50;;;;;;216282;1281;22483;-60
2022/10/20 14:08:49;;;;;;;9.40;3.60;;;23.20;59.40;;;;;;213423;1294;22936;-60
2022/10/20 14:14:11;;;;;;;14.70;3.60;;;23.10;58.40;;;;;;213203;1288;22486;-59
2022/10/20 14:19:15;;;;;;;9.80;3.10;;;23.10;58.80;;;;;;216888;1292;22499;-63
2022/10/20 14:24:36;;;;;;;15.00;3.40;;;23.00;58.50;;;;;;213211;1294;24393;-61
2022/10/20 14:29:39;;;;;;;4.90;2.80;;;23.00;58.50;;;;;;213349;1288;22471;-59
2022/10/20 14:34:55;;;;;;;10.30;3.30;;;22.90;58.80;;;;;;213278;1283;24237;-62
2022/10/20 14:40:04;;;;;;;6.20;3.00;;;22.90;58.70;;;;;;213274;1284;22716;-62
2022/10/20 14:45:21;;;;;;;6.40;2.90;;;22.80;58.80;;;;;;213338;1291;24228;-61
2022/10/20 14:50:39;;;;;;;8.50;3.10;;;22.70;58.80;;;;;;216087;1287;22671;-59
2022/10/20 14:55:42;;;;;;;13.80;3.00;;;22.70;58.90;;;;;;213216;1288;22838;-60
2022/10/20 15:00:48;;;;;;;11.30;3.00;;;22.60;59.40;;;;;;213457;1291;22462;-58
2022/10/20 15:06:04;;;;;;;9.70;3.00;;;22.60;60.00;;;;;;213340;1280;24247;-59
2022/10/20 15:11:22;;;;;;;11.10;2.60;;;22.70;59.60;;;;;;213264;1283;24410;-57
2022/10/20 15:16:45;;;;;;;7.80;3.00;;;22.60;60.00;;;;;;213127;1288;22561;-58
2022/10/20 15:22:11;;;;;;;8.80;2.90;;;22.60;60.30;;;;;;213414;1280;22515;-59
2022/10/20 15:27:30;;;;;;;6.80;2.80;;;22.50;59.90;;;;;;213140;1287;22474;-57
2022/10/20 15:32:38;;;;;;;10.20;3.40;;;22.50;60.30;;;;;;213127;1280;22491;-60
2022/10/20 15:37:51;;;;;;;11.10;2.80;;;22.50;60.30;;;;;;213315;1287;24278;-64
2022/10/20 15:42:56;;;;;;;7.30;2.90;;;22.40;60.30;;;;;;213367;1295;22838;-64
2022/10/20 15:48:00;;;;;;;5.80;2.90;;;22.40;60.40;;;;;;213224;1283;26484;-63
2022/10/20 15:53:10;;;;;;;11.80;3.90;;;22.40;59.90;;;;;;213135;1276;22488;-64
2022/10/20 15:58:16;;;;;;;8.50;3.60;;;22.40;59.50;;;;;;213440;1288;22583;-63
2022/10/20 16:03:27;;;;;;;15.10;4.80;;;22.40;60.20;;;;;;213188;1287;25588;-67
2022/10/20 16:08:34;;;;;;;23.80;5.50;;;22.30;59.80;;;;;;213431;1283;25550;-64
2022/10/20 16:13:56;;;;;;;17.10;5.00;;;22.30;60.40;;;;;;213416;1285;24249;-64
2022/10/20 16:19:01;;;;;;;19.40;5.30;;;22.40;60.80;;;;;;213469;1283;22743;-63
2022/10/20 16:24:07;;;;;;;19.00;5.20;;;22.40;60.80;;;;;;213526;1301;22846;-62
2022/10/20 16:29:11;;;;;;;12.50;4.20;;;22.40;60.70;;;;;;213355;1308;23860;-64
2022/10/20 16:34:14;;;;;;;20.40;4.60;;;22.40;60.70;;;;;;213252;1288;24245;-62
2022/10/20 16:39:23;;;;;;;13.90;4.70;;;22.30;60.60;;;;;;213340;1288;25371;-61
2022/10/20 16:44:40;;;;;;;13.40;4.60;;;22.30;60.50;;;;;;213392;1289;24250;-61
2022/10/20 16:49:44;;;;;;;9.20;3.10;;;22.30;61.00;;;;;;213388;1290;23066;-61
2022/10/20 16:54:52;;;;;;;11.60;4.20;;;22.30;61.40;;;;;;213255;1283;22606;-61
2022/10/20 16:59:59;;;;;;;16.30;4.50;;;22.30;61.40;;;;;;213420;1283;22557;-62
2022/10/20 17:05:09;;;;;;;9.20;4.00;;;22.30;61.60;;;;;;213156;1294;22480;-62
2022/10/20 17:10:16;;;;;;;12.80;4.20;;;22.30;61.90;;;;;;213328;1283;25552;-61
2022/10/20 17:15:20;;;;;;;16.20;4.50;;;22.30;61.70;;;;;;213624;1284;25552;-60
2022/10/20 17:20:26;;;;;;;9.30;4.30;;;22.20;62.40;;;;;;213364;1284;23979;-58
2022/10/20 17:25:36;;;;;;;;;;;22.10;62.50;;;;;;213278;1287;22467;-61
2022/10/20 17:30:48;;;;;;;18.40;4.90;;;22.10;63.10;;;;;;213267;1285;24863;-58
2022/10/20 17:35:56;;;;;;;15.60;5.60;;;22.00;62.90;;;;;;213365;1283;24821;-57
2022/10/20 17:41:04;;;;;;;16.00;4.80;;;22.00;63.10;;;;;;213403;1283;22697;-59
2022/10/20 17:46:11;;;;;;;14.10;5.10;;;22.00;62.90;;;;;;213464;1288;22710;-61
2022/10/20 17:51:21;;;;;;;18.20;5.70;;;22.00;63.40;;;;;;213323;1284;22588;-55
2022/10/20 17:56:31;;;;;;;20.70;5.80;;;22.00;63.40;;;;;;213280;1287;22476;-56
2022/10/20 18:01:39;;;;;;;20.80;5.40;;;22.00;63.30;;;;;;213150;1287;22464;-57
2022/10/20 18:06:44;;;;;;;21.60;6.20;;;21.90;63.60;;;;;;213751;1292;227573;-57
2022/10/20 18:11:50;;;;;;;12.80;4.90;;;21.90;64.20;;;;;;213294;1291;22866;-58
2022/10/20 18:16:57;;;;;;;21.60;6.10;;;21.90;64.50;;;;;;213637;1284;24282;-60
2022/10/20 18:22:03;;;;;;;24.20;6.70;;;21.90;62.90;;;;;;213309;1291;24290;-57
2022/10/20 18:27:07;;;;;;;39.00;14.80;;;22.00;63.20;;;;;;213240;1288;22611;-61
2022/10/20 18:32:13;;;;;;;31.40;12.60;;;22.00;63.10;;;;;;213275;1284;22535;-61
2022/10/20 18:37:21;;;;;;;44.60;19.00;;;22.00;62.20;;;;;;213389;1283;23749;-62
2022/10/20 18:42:34;;;;;;;53.10;21.30;;;22.00;60.90;;;;;;213357;1291;22617;-60
2022/10/20 18:47:43;;;;;;;33.10;18.80;;;21.90;62.50;;;;;;213356;1293;22546;-61
2022/10/20 18:52:47;;;;;;;33.90;16.50;;;21.90;62.40;;;;;;213670;1283;24022;-64
2022/10/20 18:57:51;;;;;;;57.10;20.00;;;21.90;62.20;;;;;;213222;1296;24023;-66
2022/10/20 19:02:56;;;;;;;35.10;14.80;;;21.90;62.50;;;;;;213247;1279;24241;-66
2022/10/20 19:08:19;;;;;;;37.00;13.50;;;21.90;62.40;;;;;;213451;1283;22501;-66
2022/10/20 19:13:27;;;;;;;32.60;15.30;;;21.90;62.70;;;;;;213458;1288;22497;-64
2022/10/20 19:18:31;;;;;;;25.50;13.80;;;21.90;62.70;;;;;;213542;1296;22508;-65
2022/10/20 19:23:48;;;;;;;;;;;21.90;63.40;;;;;;213532;1296;23886;-65
2022/10/20 19:29:11;;;;;;;38.50;12.90;;;21.80;63.10;;;;;;213412;1293;24247;-63
2022/10/20 19:34:20;;;;;;;38.50;12.30;;;21.80;63.00;;;;;;213601;1291;22482;-66
2022/10/20 19:39:32;;;;;;;29.80;12.40;;;21.80;62.90;;;;;;213623;1283;23921;-65
2022/10/20 19:44:39;;;;;;;21.00;11.00;;;21.80;62.80;;;;;;213566;1287;25481;-64
2022/10/20 19:49:48;;;;;;;19.20;10.30;;;21.70;63.20;;;;;;213435;1290;25664;-64
2022/10/20 19:55:04;;;;;;;23.20;11.80;;;21.70;63.80;;;;;;213543;1283;24293;-62
2022/10/20 20:00:09;;;;;;;21.60;11.30;;;21.70;64.40;;;;;;213616;1293;22468;-63
2022/10/20 20:05:13;;;;;;;23.10;11.20;;;21.70;64.80;;;;;;213427;1297;22608;-63
2022/10/20 20:10:26;;;;;;;22.80;11.20;;;21.60;65.60;;;;;;213256;1286;24241;-63
2022/10/20 20:15:34;;;;;;;26.40;11.50;;;21.60;65.00;;;;;;213229;1286;25450;-63
2022/10/20 20:20:46;;;;;;;32.40;11.50;;;21.50;65.20;;;;;;213438;1283;23486;-63
2022/10/20 20:25:49;;;;;;;20.70;10.20;;;21.50;65.30;;;;;;213453;1293;25369;-63
2022/10/20 20:31:01;;;;;;;20.30;10.30;;;21.50;65.50;;;;;;213176;1284;26600;-61
2022/10/20 20:36:08;;;;;;;25.60;11.00;;;21.40;65.60;;;;;;213322;1288;22993;-62
2022/10/20 20:41:15;;;;;;;27.90;10.90;;;21.40;65.70;;;;;;213339;1284;22838;-61
2022/10/20 20:46:27;;;;;;;23.90;11.00;;;21.40;66.30;;;;;;213377;1288;24251;-61
2022/10/20 20:51:36;;;;;;;28.60;11.10;;;21.30;65.90;;;;;;213237;1283;22495;-61
2022/10/20 20:56:41;;;;;;;21.70;9.80;;;21.30;66.00;;;;;;213448;1286;23128;-63
2022/10/20 21:01:45;;;;;;;22.20;10.20;;;21.30;66.30;;;;;;213550;1308;25438;-61
2022/10/20 21:06:49;;;;;;;21.30;9.20;;;21.30;66.00;;;;;;213589;1289;25561;-62
2022/10/20 21:12:17;;;;;;;38.50;10.20;;;21.30;66.30;;;;;;213345;1292;24275;-61
2022/10/20 21:17:29;;;;;;;25.00;9.40;;;21.30;67.70;;;;;;213608;1294;22496;-61
2022/10/20 21:22:40;;;;;;;24.50;10.80;;;21.30;66.80;;;;;;213612;1288;24234;-59
2022/10/20 21:27:44;;;;;;;28.50;10.30;;;21.30;67.40;;;;;;213588;1288;25471;-62
2022/10/20 21:32:48;;;;;;;28.10;10.50;;;21.40;71.30;;;;;;213385;1288;23523;-62
2022/10/20 21:37:56;;;;;;;24.40;10.00;;;21.50;72.20;;;;;;213463;1291;24245;-62
2022/10/20 21:43:20;;;;;;;21.60;8.90;;;21.50;72.40;;;;;;213419;1287;25207;-61
2022/10/20 21:48:24;;;;;;;22.10;8.40;;;21.50;72.20;;;;;;213616;1288;22482;-62
2022/10/20 21:53:29;;;;;;;17.20;8.00;;;21.50;71.90;;;;;;213516;1283;22521;-63
2022/10/20 21:58:36;;;;;;;15.70;7.50;;;21.50;72.20;;;;;;213449;1280;25286;-61
2022/10/20 22:03:42;;;;;;;15.90;7.10;;;21.50;71.70;;;;;;213362;1296;27679;-62
2022/10/20 22:08:49;;;;;;;14.60;7.10;;;21.50;71.50;;;;;;213517;1288;25343;-62
2022/10/20 22:13:54;;;;;;;16.30;8.10;;;21.50;71.50;;;;;;213316;1286;23810;-61
2022/10/20 22:19:03;;;;;;;17.60;8.00;;;21.40;71.50;;;;;;213553;1288;22520;-63
2022/10/20 22:24:17;;;;;;;13.90;7.30;;;21.40;71.70;;;;;;213453;1280;22550;-63
2022/10/20 22:29:24;;;;;;;16.90;7.50;;;21.40;72.00;;;;;;213551;1286;25325;-62
2022/10/20 22:34:28;;;;;;;15.10;6.80;;;21.30;71.90;;;;;;213090;1286;26112;-62
2022/10/20 22:39:58;;;;;;;14.00;6.80;;;21.30;71.90;;;;;;213252;1288;22622;-61
2022/10/20 22:45:02;;;;;;;16.40;7.20;;;21.30;72.20;;;;;;213450;1293;22492;-62
2022/10/20 22:50:12;;;;;;;16.10;7.00;;;21.40;72.00;;;;;;213633;1280;22699;-63
2022/10/20 22:55:18;;;;;;;15.20;7.40;;;21.40;71.40;;;;;;213417;1290;22992;-63
2022/10/20 23:00:32;;;;;;;19.90;7.90;;;21.40;70.80;;;;;;213048;1287;25389;-61
2022/10/20 23:05:43;;;;;;;14.20;7.40;;;21.40;70.60;;;;;;213921;1297;22508;-63
2022/10/20 23:10:55;;;;;;;16.70;7.30;;;21.40;70.60;;;;;;213514;1288;25403;-61
2022/10/20 23:16:04;;;;;;;16.70;7.20;;;21.30;70.50;;;;;;213256;1287;25352;-61
2022/10/20 23:21:12;;;;;;;13.60;6.90;;;21.30;70.10;;;;;;213440;1293;22609;-60
2022/10/20 23:26:16;;;;;;;12.60;6.90;;;21.30;69.80;;;;;;213819;1287;22481;-62
2022/10/20 23:31:30;;;;;;;13.60;6.90;;;21.30;69.20;;;;;;213619;1296;25498;-60
2022/10/20 23:36:35;;;;;;;13.50;7.40;;;21.30;69.50;;;;;;213363;1286;22655;-58
2022/10/20 23:41:41;;;;;;;21.70;8.40;;;21.20;69.40;;;;;;213266;1291;22477;-61
2022/10/20 23:46:47;;;;;;;11.40;6.50;;;21.20;69.70;;;;;;213305;1288;26995;-61
2022/10/20 23:51:51;;;;;;;11.60;6.90;;;21.20;69.60;;;;;;213404;1290;24345;-60
2022/10/20 23:57:01;;;;;;;16.40;7.40;;;21.10;69.70;;;;;;213376;1280;22606;-62
